Froeybanken — LJML — position and weather

sailwx.info

Track history (hours):
 
Tides and Currents Weather Stations Pressure Air Temp Water Temp Dewpoint Dewpoint Depression Visibility Wind Speed Wind Dir Waves Ship Positions

Froeybanken

Last reported at 2016-May-11 15:09 UTC. Time now 2016-May-28 20:37 UTC.
Position N 67°26' E 014°01'.
Warning: this ship's position is 17 days out of date.

Length 22 m; draft 3.6 m.

Type: Fishing. MMSI: 257470500.

Date/timePositionNaut miles runAvg speedWind from/ knotsBaromVisibWave heightAir tempDewpointWater temp
2016-May-11 15:09N 67°26' E 014°01'6 9.9
2016-May-11 14:33N 67°21' E 014°10'7 6.5
2016-May-11 13:33N 67°18' E 014°24'0 0.0
2016-May-11 12:33N 67°18' E 014°24'1 0.6
2016-May-11 11:33N 67°18' E 014°22'1 1.3
2016-May-11 10:33N 67°19' E 014°21'2 1.6
2016-May-11 09:33N 67°19' E 014°25'1 1.1
2016-May-11 08:33N 67°18' E 014°23'1 1.0
2016-May-11 07:33N 67°18' E 014°24'0 0.3
2016-May-11 06:33N 67°17' E 014°23'0 0.0
2016-May-11 05:33N 67°17' E 014°23'0 0.0
2016-May-11 04:33N 67°17' E 014°23'0 0.0
2016-May-11 03:33N 67°17' E 014°23'0 0.0
2016-May-11 02:33N 67°17' E 014°23'0 0.0
2016-May-11 01:33N 67°17' E 014°23'0 0.0
2016-May-11 00:33N 67°17' E 014°23'0 0.0
2016-May-10 23:33N 67°17' E 014°23'0 0.0
2016-May-10 22:33N 67°17' E 014°23'0 0.0
2016-May-10 21:33N 67°17' E 014°23'0 0.0
2016-May-10 20:33N 67°17' E 014°23'0 0.0
2016-May-10 19:33N 67°17' E 014°23'0 0.0
2016-May-10 18:33N 67°17' E 014°23'0 0.0
2016-May-10 17:33N 67°17' E 014°23'0 0.0
2016-May-10 16:33N 67°17' E 014°23'0 0.0
2016-May-10 15:33N 67°17' E 014°23'0 0.0
2016-May-10 14:33N 67°17' E 014°23'0 0.0
2016-May-10 13:33N 67°17' E 014°23'0 0.0
2016-May-10 12:33N 67°17' E 014°23'0 0.0
2016-May-10 11:33N 67°17' E 014°23'0 0.0
2016-May-10 10:33N 67°17' E 014°23'0 0.0
2016-May-10 09:33N 67°17' E 014°23'0 0.0
2016-May-10 08:33N 67°17' E 014°23'0 0.0
2016-May-10 07:33N 67°17' E 014°23'0 0.0
2016-May-10 06:33N 67°17' E 014°23'0 0.0
2016-May-10 05:33N 67°17' E 014°23'0 0.0
2016-May-10 04:33N 67°17' E 014°23'0 0.0
2016-May-10 03:33N 67°17' E 014°23'0 0.0
2016-May-10 02:33N 67°17' E 014°23'0 0.0
2016-May-10 01:33N 67°17' E 014°23'0 0.0
2016-May-10 00:33N 67°17' E 014°23'0 0.0
2016-May-09 23:33N 67°17' E 014°23'0 0.0
2016-May-09 22:33N 67°17' E 014°23'0 0.0
2016-May-09 21:33N 67°17' E 014°23'0 0.0
2016-May-09 20:33N 67°17' E 014°23'0 0.0
2016-May-09 19:33N 67°17' E 014°23'0 0.0
2016-May-09 18:33N 67°17' E 014°23'0 0.0
2016-May-09 17:33N 67°17' E 014°23'0 0.0
2016-May-09 16:33N 67°17' E 014°23'0 0.0
2016-May-09 15:33N 67°17' E 014°23'0 0.0
2016-May-09 14:33N 67°17' E 014°23'0 0.0
2016-May-09 13:33N 67°17' E 014°23'2 2.2
2016-May-09 12:33N 67°19' E 014°20'9 9.1
2016-May-09 11:33N 67°25' E 014°02'  
Track history (hours):
 
Tides and Currents Weather Stations Pressure Air Temp Water Temp Dewpoint Dewpoint Depression Visibility Wind Speed Wind Dir Waves Ship Positions

Froeybanken

Last reported at 2016-May-11 15:09 UTC. Time now 2016-May-28 20:37 UTC.
Position N 67°26' E 014°01'.
Warning: this ship's position is 17 days out of date.

Length 22 m; draft 3.6 m.

Type: Fishing. MMSI: 257470500.

Date/timePositionNaut miles runAvg speedWind from/ knotsBaromVisibWave heightAir tempDewpointWater temp
2016-May-11 15:09N 67°26' E 014°01'6 9.9
2016-May-11 14:33N 67°21' E 014°10'7 6.5
2016-May-11 13:33N 67°18' E 014°24'0 0.0
2016-May-11 12:33N 67°18' E 014°24'1 0.6
2016-May-11 11:33N 67°18' E 014°22'1 1.3
2016-May-11 10:33N 67°19' E 014°21'2 1.6
2016-May-11 09:33N 67°19' E 014°25'1 1.1
2016-May-11 08:33N 67°18' E 014°23'1 1.0
2016-May-11 07:33N 67°18' E 014°24'0 0.3
2016-May-11 06:33N 67°17' E 014°23'0 0.0
2016-May-11 05:33N 67°17' E 014°23'0 0.0
2016-May-11 04:33N 67°17' E 014°23'0 0.0
2016-May-11 03:33N 67°17' E 014°23'0 0.0
2016-May-11 02:33N 67°17' E 014°23'0 0.0
2016-May-11 01:33N 67°17' E 014°23'0 0.0
2016-May-11 00:33N 67°17' E 014°23'0 0.0
2016-May-10 23:33N 67°17' E 014°23'0 0.0
2016-May-10 22:33N 67°17' E 014°23'0 0.0
2016-May-10 21:33N 67°17' E 014°23'0 0.0
2016-May-10 20:33N 67°17' E 014°23'0 0.0
2016-May-10 19:33N 67°17' E 014°23'0 0.0
2016-May-10 18:33N 67°17' E 014°23'0 0.0
2016-May-10 17:33N 67°17' E 014°23'0 0.0
2016-May-10 16:33N 67°17' E 014°23'0 0.0
2016-May-10 15:33N 67°17' E 014°23'0 0.0
2016-May-10 14:33N 67°17' E 014°23'0 0.0
2016-May-10 13:33N 67°17' E 014°23'0 0.0
2016-May-10 12:33N 67°17' E 014°23'0 0.0
2016-May-10 11:33N 67°17' E 014°23'0 0.0
2016-May-10 10:33N 67°17' E 014°23'0 0.0
2016-May-10 09:33N 67°17' E 014°23'0 0.0
2016-May-10 08:33N 67°17' E 014°23'0 0.0
2016-May-10 07:33N 67°17' E 014°23'0 0.0
2016-May-10 06:33N 67°17' E 014°23'0 0.0
2016-May-10 05:33N 67°17' E 014°23'0 0.0
2016-May-10 04:33N 67°17' E 014°23'0 0.0
2016-May-10 03:33N 67°17' E 014°23'0 0.0
2016-May-10 02:33N 67°17' E 014°23'0 0.0
2016-May-10 01:33N 67°17' E 014°23'0 0.0
2016-May-10 00:33N 67°17' E 014°23'0 0.0
2016-May-09 23:33N 67°17' E 014°23'0 0.0
2016-May-09 22:33N 67°17' E 014°23'0 0.0
2016-May-09 21:33N 67°17' E 014°23'0 0.0
2016-May-09 20:33N 67°17' E 014°23'0 0.0
2016-May-09 19:33N 67°17' E 014°23'0 0.0
2016-May-09 18:33N 67°17' E 014°23'0 0.0
2016-May-09 17:33N 67°17' E 014°23'0 0.0
2016-May-09 16:33N 67°17' E 014°23'0 0.0
2016-May-09 15:33N 67°17' E 014°23'0 0.0
2016-May-09 14:33N 67°17' E 014°23'0 0.0
2016-May-09 13:33N 67°17' E 014°23'2 2.2
2016-May-09 12:33N 67°19' E 014°20'9 9.1
2016-May-09 11:33N 67°25' E 014°02'  

Dump ship's entire track history